createdAt,value
2018-05-10T00:00:35.836Z,6.92
2018-05-10T00:06:30.827Z,6.82
2018-05-10T00:12:25.867Z,10.38
2018-05-10T00:18:20.858Z,6.22
2018-05-10T00:24:15.982Z,6.41
2018-05-10T00:30:10.923Z,6.5
2018-05-10T00:36:05.862Z,8
2018-05-10T00:42:00.842Z,6.77
2018-05-10T00:47:55.860Z,8.26
2018-05-10T00:53:50.881Z,7.09
2018-05-10T00:59:45.872Z,7.87
2018-05-10T01:05:40.891Z,7.82
2018-05-10T01:11:35.871Z,7.61
2018-05-10T01:17:30.904Z,7.4
2018-05-10T01:23:25.907Z,7.05
2018-05-10T01:29:20.941Z,7.62
2018-05-10T01:35:15.893Z,7.77
2018-05-10T01:41:10.893Z,8.63
2018-05-10T01:47:05.887Z,9.13
2018-05-10T01:53:00.989Z,8.87
2018-05-10T01:58:55.902Z,8.12
2018-05-10T02:04:50.946Z,7.23
2018-05-10T02:10:45.895Z,7.61
2018-05-10T02:16:40.935Z,7.63
2018-05-10T02:22:35.943Z,8.02
2018-05-10T02:28:30.925Z,7.78
2018-05-10T02:34:25.967Z,8.4
2018-05-10T02:40:20.925Z,8.53
2018-05-10T02:46:15.945Z,8.49
2018-05-10T02:52:10.972Z,8.86
2018-05-10T02:58:05.930Z,8.68
2018-05-10T03:04:00.987Z,9.21
2018-05-10T03:09:55.980Z,14.07
2018-05-10T03:15:50.988Z,11.57
2018-05-10T03:21:45.938Z,10.21
2018-05-10T03:27:40.961Z,9.74
2018-05-10T03:33:36.011Z,9.23
2018-05-10T03:39:30.968Z,8.97
2018-05-10T03:45:25.977Z,9.88
2018-05-10T03:51:21.010Z,8.97
2018-05-10T03:57:15.946Z,9.23
2018-05-10T04:03:11.002Z,8.61
2018-05-10T04:09:05.990Z,8.53
2018-05-10T04:15:00.998Z,8.92
2018-05-10T04:20:55.981Z,10.34
2018-05-10T04:26:50.967Z,9.61
2018-05-10T04:32:45.975Z,8.35
2018-05-10T04:38:40.987Z,8.83
2018-05-10T04:44:35.996Z,15.82
2018-05-10T04:50:31.026Z,17.14
2018-05-10T04:56:25.997Z,15.22
2018-05-10T05:02:21.014Z,12.22
2018-05-10T05:08:16.008Z,16.23
2018-05-10T05:14:11.031Z,14.98
2018-05-10T05:20:06.032Z,15.18
2018-05-10T05:26:01.037Z,16.11
2018-05-10T05:31:56.011Z,13.49
2018-05-10T05:37:50.996Z,13.17
2018-05-10T05:43:46.017Z,10.78
2018-05-10T05:49:41.020Z,11.06
2018-05-10T05:55:36.053Z,15.88
2018-05-10T06:01:31.052Z,17
2018-05-10T06:07:26.064Z,27.07
2018-05-10T06:13:21.108Z,23.42
2018-05-10T06:19:16.048Z,22.35
2018-05-10T06:25:11.320Z,16.5
2018-05-10T06:31:06.067Z,22.33
2018-05-10T06:37:01.032Z,24.59
2018-05-10T06:42:56.129Z,22.7
2018-05-10T06:48:51.085Z,20.67
2018-05-10T06:54:46.128Z,21.56
2018-05-10T07:00:41.079Z,24.43
2018-05-10T07:06:36.083Z,20.09
2018-05-10T07:12:31.074Z,23.42
2018-05-10T07:18:26.060Z,19.09
2018-05-10T07:24:21.065Z,16.82
2018-05-10T07:30:16.084Z,19.98
2018-05-10T07:36:11.095Z,17.01
2018-05-10T07:42:06.179Z,28.72
2018-05-10T07:48:01.094Z,24.85
2018-05-10T07:53:56.116Z,18.95
2018-05-10T07:59:51.080Z,22.62
2018-05-10T08:05:46.114Z,19.35
2018-05-10T08:11:41.095Z,21.41
2018-05-10T08:17:36.122Z,28.17
2018-05-10T08:23:31.118Z,24.61
2018-05-10T08:29:26.103Z,24.67
2018-05-10T08:35:21.124Z,22.98
2018-05-10T08:41:16.131Z,20.79
2018-05-10T08:47:11.125Z,20.76
2018-05-10T08:53:06.132Z,18.34
2018-05-10T08:59:01.193Z,14.73
2018-05-10T09:04:56.127Z,18.15
2018-05-10T09:10:51.156Z,16.66
2018-05-10T09:16:46.141Z,15.17
2018-05-10T09:22:41.120Z,13.16
2018-05-10T09:28:36.192Z,18.14
2018-05-10T09:34:31.151Z,15.44
2018-05-10T09:40:26.148Z,10.64
2018-05-10T09:46:21.157Z,11.65
2018-05-10T09:52:16.207Z,13.91
2018-05-10T09:58:11.156Z,13.41
2018-05-10T10:04:06.155Z,10.96
2018-05-10T10:10:01.180Z,12.17
2018-05-10T10:15:56.198Z,11.4
2018-05-10T10:21:51.163Z,11.68
2018-05-10T10:27:46.197Z,7.75
2018-05-10T10:33:41.182Z,8.72
2018-05-10T10:39:36.201Z,7.6
2018-05-10T10:45:31.215Z,6.46
2018-05-10T10:51:26.207Z,7.55
2018-05-10T10:57:21.190Z,8.07
2018-05-10T11:03:16.207Z,8.94
2018-05-10T11:09:11.225Z,8.14
2018-05-10T11:15:06.362Z,6.71
2018-05-10T11:21:01.201Z,7.82
2018-05-10T11:26:56.202Z,8.15
2018-05-10T11:32:51.272Z,8.1
2018-05-10T11:38:46.224Z,6.97
2018-05-10T11:44:41.295Z,7.72
2018-05-10T11:50:36.255Z,6.28
2018-05-10T11:56:31.281Z,5.77
2018-05-10T12:02:26.264Z,5.09
2018-05-10T12:08:21.250Z,5.52
2018-05-10T12:14:16.243Z,5.47
2018-05-10T12:20:11.287Z,5.65
2018-05-10T12:26:06.221Z,5.55
2018-05-10T12:32:01.243Z,5.36
2018-05-10T12:37:56.253Z,5.56
2018-05-10T12:43:51.244Z,5.69
2018-05-10T12:49:46.249Z,6.88
2018-05-10T12:55:41.312Z,6.02
2018-05-10T13:01:36.282Z,5.39
2018-05-10T13:07:31.442Z,4.93
2018-05-10T13:13:26.345Z,4.63
2018-05-10T13:19:21.427Z,3.62
2018-05-10T13:25:16.287Z,6.61
2018-05-10T13:31:11.300Z,5.34
2018-05-10T13:37:06.272Z,4.55
2018-05-10T13:43:01.310Z,4.53
2018-05-10T13:48:56.275Z,5.48
2018-05-10T13:54:51.294Z,5.79
2018-05-10T14:00:46.295Z,4.71
2018-05-10T14:06:41.352Z,5.67
2018-05-10T14:12:36.328Z,4.8
2018-05-10T14:18:31.326Z,6.07
2018-05-10T14:24:26.320Z,10.15
2018-05-10T14:30:21.436Z,11.56
2018-05-10T14:36:16.305Z,9.73
2018-05-10T14:42:11.323Z,8.24
2018-05-10T14:48:06.340Z,9.33
2018-05-10T14:54:01.430Z,7.98
2018-05-10T14:59:56.347Z,5.43
2018-05-10T15:05:51.328Z,5.49
2018-05-10T15:11:46.351Z,4.94
2018-05-10T15:17:41.361Z,5.7
2018-05-10T15:23:36.364Z,4.37
2018-05-10T15:29:31.400Z,4.45
2018-05-10T15:35:26.437Z,4.7
2018-05-10T15:41:21.357Z,3.69
2018-05-10T15:47:16.361Z,5.25
2018-05-10T15:53:11.392Z,4.66
2018-05-10T15:59:06.389Z,4.73
2018-05-10T16:05:01.375Z,4.45
2018-05-10T16:10:56.366Z,3.99
2018-05-10T16:16:51.376Z,3.97
2018-05-10T16:22:46.403Z,4.51
2018-05-10T16:28:41.367Z,3.87
2018-05-10T16:34:36.407Z,3.63
2018-05-10T16:40:31.394Z,2.54
2018-05-10T16:46:26.402Z,2.01
2018-05-10T16:52:21.415Z,2.51
2018-05-10T16:58:16.438Z,3.7
2018-05-10T17:04:11.399Z,3.1
2018-05-10T17:10:06.414Z,3.75
2018-05-10T17:16:01.417Z,3.24
2018-05-10T17:21:56.438Z,4.27
2018-05-10T17:27:51.430Z,3.88
2018-05-10T17:33:46.427Z,2.85
2018-05-10T17:39:41.482Z,4.44
2018-05-10T17:45:36.438Z,3.97
2018-05-10T17:51:31.427Z,3.57
2018-05-10T17:57:26.466Z,3.75
2018-05-10T18:03:21.467Z,3.74
2018-05-10T18:09:16.428Z,3.77
2018-05-10T18:15:11.440Z,3.47
2018-05-10T18:21:06.412Z,4.47
2018-05-10T18:27:01.517Z,3.26
2018-05-10T18:32:56.429Z,4.26
2018-05-10T18:38:51.496Z,5.3
2018-05-10T18:44:46.501Z,4.32
2018-05-10T18:50:41.523Z,3.93
2018-05-10T18:56:36.472Z,4.02
2018-05-10T19:02:31.485Z,4.57
2018-05-10T19:08:26.449Z,4.77
2018-05-10T19:14:21.492Z,5.37
2018-05-10T19:20:16.469Z,5.2
2018-05-10T19:26:11.474Z,4.3
2018-05-10T19:32:06.547Z,4.97
2018-05-10T19:38:01.530Z,4.27
2018-05-10T19:43:56.486Z,4.67
2018-05-10T19:49:51.469Z,5.07
2018-05-10T19:55:46.484Z,5.52
2018-05-10T20:01:41.572Z,8.23
2018-05-10T20:07:36.498Z,5.12
2018-05-10T20:13:31.512Z,4.79
2018-05-10T20:19:26.477Z,4.3
2018-05-10T20:25:21.497Z,4.81
2018-05-10T20:31:16.505Z,5.58
2018-05-10T20:37:11.526Z,5.13
2018-05-10T20:43:06.593Z,5.05
2018-05-10T20:49:01.524Z,4.78
2018-05-10T20:54:56.562Z,5.76
2018-05-10T21:00:51.534Z,4.65
2018-05-10T21:06:46.560Z,5.23
2018-05-10T21:12:41.532Z,5.66
2018-05-10T21:18:36.555Z,5.31
2018-05-10T21:24:31.557Z,6
2018-05-10T21:30:26.578Z,6.53
2018-05-10T21:36:21.593Z,6.18
2018-05-10T21:42:16.545Z,5.28
2018-05-10T21:48:11.570Z,5.63
2018-05-10T21:54:06.602Z,6.05
2018-05-10T22:00:01.602Z,5.54
2018-05-10T22:05:56.606Z,6.47
2018-05-10T22:11:51.562Z,5.71
2018-05-10T22:17:46.577Z,5.58
2018-05-10T22:23:41.563Z,5.75
2018-05-10T22:29:36.558Z,5.82
2018-05-10T22:35:31.658Z,6.17
2018-05-10T22:41:26.597Z,5.2
2018-05-10T22:47:21.599Z,6.26
2018-05-10T22:53:16.592Z,6.72
2018-05-10T22:59:11.621Z,5.89
2018-05-10T23:05:06.577Z,5.68
2018-05-10T23:11:01.647Z,5.79
2018-05-10T23:16:56.648Z,6.67
2018-05-10T23:22:51.606Z,6.16
2018-05-10T23:28:46.620Z,6.16
2018-05-10T23:34:41.595Z,6.54
2018-05-10T23:40:36.689Z,6.75
2018-05-10T23:46:31.630Z,6
2018-05-10T23:52:26.623Z,6.78
2018-05-10T23:58:21.644Z,5.76
